CES909 ZSPD-PHNL
Flight info
| Callsign | CES909 |
|---|---|
| Flight time | N/A |
| Altitude | 41000 |
| Route | LAM81D LAMEN A593 SADLI Y590 BEDAR Y591 FUE Y23 KASTE Y81 TASOT Y57 LIGNI Y816 IPROS Y830 LAPIL OTR13 SEALS DCT 35N150E 35N155E 35N160E 34N165E 32N170E 30N175E 29N180E 28N175W 25N170W 22N165W DCT BRIUN DCT KATHS OPACA4 |
| Aircraft | A359/H-SDE2E3GHIJ3J4J5LM1ORWXY/LB1D1 |
Departure
| Time | N/A |
|---|---|
| Airport | Shanghai Pudong International Airport (ZSPD) |
Arrival
| Time | 2026-05-04 09:46 |
|---|---|
| Airport | Daniel K. Inouye International Airport (PHNL) |
| Time | Latitude | Longitude | Altitude | Speed | Heading |
|---|---|---|---|---|---|
| 2026-05-04 08:44 | 21.14572 | -163.70799 | 37092 ft | 517 kts | 91° |
| 2026-05-04 08:46 | 21.14010 | -163.43870 | 35348 ft | 518 kts | 91° |
| 2026-05-04 08:46 | 21.13912 | -163.40009 | 35107 ft | 518 kts | 91° |
| 2026-05-04 08:46 | 21.13815 | -163.36150 | 34875 ft | 518 kts | 91° |
| 2026-05-04 08:46 | 21.13717 | -163.32283 | 34649 ft | 519 kts | 91° |
| 2026-05-04 08:47 | 21.13618 | -163.28422 | 34413 ft | 519 kts | 91° |
| 2026-05-04 08:47 | 21.13519 | -163.24558 | 34181 ft | 519 kts | 91° |
| 2026-05-04 08:47 | 21.13419 | -163.20695 | 33923 ft | 519 kts | 91° |
| 2026-05-04 08:47 | 21.13318 | -163.16823 | 33659 ft | 520 kts | 91° |
| 2026-05-04 08:48 | 21.13215 | -163.12947 | 33391 ft | 520 kts | 91° |
| 2026-05-04 08:48 | 21.13112 | -163.09065 | 33131 ft | 521 kts | 91° |
| 2026-05-04 08:48 | 21.13008 | -163.05189 | 32876 ft | 522 kts | 91° |
| 2026-05-04 08:48 | 21.12903 | -163.01300 | 32620 ft | 522 kts | 91° |
| 2026-05-04 08:49 | 21.12797 | -162.97410 | 32372 ft | 523 kts | 91° |
| 2026-05-04 08:50 | 21.12140 | -162.74012 | 30917 ft | 525 kts | 91° |
| 2026-05-04 08:50 | 21.12026 | -162.70097 | 30681 ft | 526 kts | 91° |
| 2026-05-04 08:51 | 21.11913 | -162.66185 | 30446 ft | 525 kts | 91° |
| 2026-05-04 08:51 | 21.11798 | -162.62272 | 30217 ft | 527 kts | 91° |
| 2026-05-04 08:51 | 21.11682 | -162.58348 | 29938 ft | 526 kts | 91° |
| 2026-05-04 08:51 | 21.11566 | -162.54428 | 29662 ft | 526 kts | 91° |
| 2026-05-04 08:52 | 21.11450 | -162.50573 | 29401 ft | 524 kts | 91° |
| 2026-05-04 08:52 | 21.11332 | -162.46685 | 29133 ft | 521 kts | 91° |
| 2026-05-04 08:52 | 21.11214 | -162.42807 | 28878 ft | 520 kts | 91° |
| 2026-05-04 08:52 | 21.11096 | -162.38949 | 28615 ft | 517 kts | 91° |
| 2026-05-04 08:53 | 21.10977 | -162.35105 | 28364 ft | 516 kts | 91° |
| 2026-05-04 08:54 | 21.10131 | -162.08526 | 26621 ft | 504 kts | 91° |
| 2026-05-04 08:55 | 21.10010 | -162.04824 | 26381 ft | 502 kts | 91° |
| 2026-05-04 08:55 | 21.09887 | -162.01094 | 26137 ft | 501 kts | 91° |
| 2026-05-04 08:55 | 21.09763 | -161.97370 | 25928 ft | 500 kts | 91° |
| 2026-05-04 08:55 | 21.09639 | -161.93651 | 25683 ft | 498 kts | 91° |
| 2026-05-04 08:57 | 21.08762 | -161.68021 | 24087 ft | 487 kts | 91° |
| 2026-05-04 09:01 | 21.06996 | -161.18466 | 20658 ft | 465 kts | 92° |
| 2026-05-04 09:01 | 21.06872 | -161.15012 | 20411 ft | 463 kts | 92° |
| 2026-05-04 09:01 | 21.06748 | -161.11575 | 20178 ft | 461 kts | 92° |
| 2026-05-04 09:01 | 21.06624 | -161.08146 | 19947 ft | 460 kts | 92° |
| 2026-05-04 09:02 | 21.06499 | -161.04727 | 19714 ft | 458 kts | 92° |
| 2026-05-04 09:02 | 21.06374 | -161.01328 | 19476 ft | 456 kts | 92° |
| 2026-05-04 09:02 | 21.06249 | -160.97936 | 19258 ft | 455 kts | 92° |
| 2026-05-04 09:02 | 21.06125 | -160.94600 | 19037 ft | 453 kts | 92° |
| 2026-05-04 09:03 | 21.05999 | -160.91232 | 18813 ft | 453 kts | 92° |
| 2026-05-04 09:03 | 21.05873 | -160.87864 | 18589 ft | 451 kts | 92° |
| 2026-05-04 09:03 | 21.05746 | -160.84517 | 18358 ft | 449 kts | 91° |
| 2026-05-04 09:03 | 21.05620 | -160.81171 | 18102 ft | 449 kts | 91° |
| 2026-05-04 09:04 | 21.05494 | -160.77837 | 17845 ft | 446 kts | 92° |
| 2026-05-04 09:04 | 21.05367 | -160.74534 | 17595 ft | 444 kts | 91° |
| 2026-05-04 09:04 | 21.05240 | -160.71232 | 17345 ft | 442 kts | 92° |
| 2026-05-04 09:04 | 21.05115 | -160.68003 | 17098 ft | 439 kts | 92° |
| 2026-05-04 09:05 | 21.04988 | -160.64747 | 16858 ft | 438 kts | 92° |
| 2026-05-04 09:05 | 21.04861 | -160.61488 | 16610 ft | 436 kts | 92° |
| 2026-05-04 09:05 | 21.04734 | -160.58251 | 16371 ft | 433 kts | 92° |
| 2026-05-04 09:05 | 21.04607 | -160.55032 | 16135 ft | 432 kts | 92° |
| 2026-05-04 09:06 | 21.04480 | -160.51824 | 15894 ft | 429 kts | 92° |
| 2026-05-04 09:07 | 21.03593 | -160.29836 | 14280 ft | 416 kts | 92° |
| 2026-05-04 09:08 | 21.03466 | -160.26749 | 14048 ft | 414 kts | 92° |
| 2026-05-04 09:08 | 21.03339 | -160.23677 | 13798 ft | 412 kts | 92° |
| 2026-05-04 09:08 | 21.03212 | -160.20620 | 13548 ft | 410 kts | 92° |
| 2026-05-04 09:08 | 21.03085 | -160.17585 | 13293 ft | 408 kts | 92° |
| 2026-05-04 09:09 | 21.02959 | -160.14561 | 13049 ft | 405 kts | 92° |
| 2026-05-04 09:09 | 21.02832 | -160.11553 | 12801 ft | 403 kts | 92° |
| 2026-05-04 09:09 | 21.02708 | -160.08611 | 12558 ft | 401 kts | 92° |
| 2026-05-04 09:09 | 21.02582 | -160.05630 | 12310 ft | 399 kts | 92° |
| 2026-05-04 09:10 | 21.02456 | -160.02666 | 12059 ft | 397 kts | 92° |
| 2026-05-04 09:10 | 21.02330 | -159.99718 | 11820 ft | 395 kts | 92° |
| 2026-05-04 09:10 | 21.02204 | -159.96785 | 11578 ft | 393 kts | 92° |
| 2026-05-04 09:10 | 21.02079 | -159.93870 | 11346 ft | 391 kts | 92° |
| 2026-05-04 09:11 | 21.01953 | -159.90963 | 11106 ft | 389 kts | 92° |
| 2026-05-04 09:11 | 21.01828 | -159.88078 | 10877 ft | 388 kts | 92° |
| 2026-05-04 09:11 | 21.01703 | -159.85195 | 10640 ft | 386 kts | 92° |
| 2026-05-04 09:11 | 21.01578 | -159.82337 | 10402 ft | 384 kts | 92° |
| 2026-05-04 09:12 | 21.01453 | -159.79488 | 10182 ft | 382 kts | 92° |
| 2026-05-04 09:12 | 21.01329 | -159.76691 | 9945 ft | 379 kts | 92° |
| 2026-05-04 09:14 | 21.00563 | -159.59532 | 8408 ft | 286 kts | 92° |
| 2026-05-04 09:14 | 21.00470 | -159.57468 | 8177 ft | 279 kts | 92° |
| 2026-05-04 09:14 | 21.00376 | -159.55396 | 7941 ft | 278 kts | 92° |
| 2026-05-04 09:14 | 21.00283 | -159.53338 | 7699 ft | 276 kts | 92° |
| 2026-05-04 09:15 | 21.00190 | -159.51300 | 7459 ft | 273 kts | 92° |
| 2026-05-04 09:15 | 21.00097 | -159.49265 | 7228 ft | 274 kts | 92° |
| 2026-05-04 09:15 | 21.00004 | -159.47232 | 6989 ft | 273 kts | 92° |
| 2026-05-04 09:15 | 20.99911 | -159.45209 | 6756 ft | 270 kts | 92° |
| 2026-05-04 09:17 | 20.99186 | -159.29584 | 4909 ft | 257 kts | 92° |
| 2026-05-04 09:18 | 20.99097 | -159.27702 | 4789 ft | 252 kts | 92° |
| 2026-05-04 09:18 | 20.99009 | -159.25818 | 4664 ft | 255 kts | 92° |
| 2026-05-04 09:18 | 20.98920 | -159.23910 | 4537 ft | 256 kts | 92° |
| 2026-05-04 09:18 | 20.98830 | -159.22034 | 4428 ft | 252 kts | 92° |
| 2026-05-04 09:19 | 20.98741 | -159.20160 | 4283 ft | 252 kts | 92° |
| 2026-05-04 09:19 | 20.98653 | -159.18284 | 4174 ft | 251 kts | 92° |
| 2026-05-04 09:19 | 20.98565 | -159.16431 | 4070 ft | 251 kts | 92° |
| 2026-05-04 09:19 | 20.98477 | -159.14593 | 3949 ft | 247 kts | 92° |
| 2026-05-04 09:20 | 20.98388 | -159.12755 | 3841 ft | 247 kts | 92° |
| 2026-05-04 09:20 | 20.98301 | -159.10918 | 3722 ft | 244 kts | 92° |
| 2026-05-04 09:20 | 20.98213 | -159.09092 | 3615 ft | 250 kts | 92° |
| 2026-05-04 09:20 | 20.98125 | -159.07259 | 3497 ft | 244 kts | 92° |
| 2026-05-04 09:21 | 20.98038 | -159.05449 | 3374 ft | 243 kts | 93° |
| 2026-05-04 09:21 | 20.97949 | -159.03627 | 3259 ft | 246 kts | 92° |
| 2026-05-04 09:21 | 20.97860 | -159.01789 | 3138 ft | 247 kts | 92° |
| 2026-05-04 09:21 | 20.97770 | -158.99964 | 3077 ft | 246 kts | 92° |
| 2026-05-04 09:22 | 20.97680 | -158.98136 | 3071 ft | 246 kts | 92° |
| 2026-05-04 09:22 | 20.97594 | -158.96341 | 3068 ft | 244 kts | 92° |
| 2026-05-04 09:22 | 20.97505 | -158.94521 | 3069 ft | 247 kts | 92° |
| 2026-05-04 09:22 | 20.97415 | -158.92682 | 3068 ft | 246 kts | 92° |
| 2026-05-04 09:23 | 20.97326 | -158.90863 | 3064 ft | 243 kts | 92° |
| 2026-05-04 09:23 | 20.97237 | -158.89059 | 3072 ft | 245 kts | 92° |
| 2026-05-04 09:23 | 20.97147 | -158.87223 | 3069 ft | 247 kts | 92° |
| 2026-05-04 09:23 | 20.97056 | -158.85379 | 3068 ft | 247 kts | 93° |
| 2026-05-04 09:25 | 20.96422 | -158.72676 | 3068 ft | 245 kts | 92° |
| 2026-05-04 09:25 | 20.96330 | -158.70853 | 3068 ft | 246 kts | 92° |
| 2026-05-04 09:26 | 20.96239 | -158.69023 | 3069 ft | 246 kts | 92° |
| 2026-05-04 09:26 | 20.96147 | -158.67211 | 3069 ft | 242 kts | 92° |
| 2026-05-04 09:26 | 20.96056 | -158.65405 | 3065 ft | 243 kts | 92° |
| 2026-05-04 09:26 | 20.95965 | -158.63596 | 3067 ft | 246 kts | 92° |
| 2026-05-04 09:27 | 20.95872 | -158.61767 | 3064 ft | 245 kts | 92° |
| 2026-05-04 09:27 | 20.95780 | -158.59962 | 3067 ft | 240 kts | 92° |
| 2026-05-04 09:27 | 20.95688 | -158.58179 | 3070 ft | 241 kts | 92° |
| 2026-05-04 09:27 | 20.95596 | -158.56377 | 3072 ft | 245 kts | 92° |
| 2026-05-04 09:28 | 20.95503 | -158.54556 | 3061 ft | 244 kts | 92° |
| 2026-05-04 09:28 | 20.95410 | -158.52743 | 3069 ft | 243 kts | 92° |
| 2026-05-04 09:28 | 20.95348 | -158.51545 | 3063 ft | 243 kts | 92° |
| 2026-05-04 09:28 | 20.95223 | -158.49125 | 3066 ft | 248 kts | 93° |
| 2026-05-04 09:29 | 20.95126 | -158.47275 | 3064 ft | 248 kts | 93° |
| 2026-05-04 09:29 | 20.95064 | -158.46055 | 3067 ft | 248 kts | 92° |
| 2026-05-04 09:29 | 20.94965 | -158.44212 | 3066 ft | 247 kts | 93° |
| 2026-05-04 09:29 | 20.94865 | -158.42376 | 3066 ft | 247 kts | 93° |
| 2026-05-04 09:30 | 20.94768 | -158.40540 | 3064 ft | 249 kts | 92° |
| 2026-05-04 09:30 | 20.94674 | -158.38680 | 3063 ft | 248 kts | 92° |
| 2026-05-04 09:30 | 20.94582 | -158.36844 | 3063 ft | 245 kts | 92° |
| 2026-05-04 09:30 | 20.94487 | -158.35016 | 3073 ft | 247 kts | 92° |
| 2026-05-04 09:31 | 20.94392 | -158.33187 | 3071 ft | 247 kts | 92° |
| 2026-05-04 09:31 | 20.94296 | -158.31343 | 3066 ft | 249 kts | 93° |
| 2026-05-04 09:31 | 20.94198 | -158.29496 | 3066 ft | 247 kts | 92° |
| 2026-05-04 09:31 | 20.94186 | -158.27676 | 3066 ft | 245 kts | 84° |
| 2026-05-04 09:32 | 20.94608 | -158.25904 | 3072 ft | 249 kts | 66° |
| 2026-05-04 09:32 | 20.95582 | -158.24381 | 3064 ft | 250 kts | 46° |
| 2026-05-04 09:34 | 21.06896 | -158.27453 | 3070 ft | 268 kts | 348° |
| 2026-05-04 09:34 | 21.08693 | -158.27985 | 3067 ft | 268 kts | 350° |
| 2026-05-04 09:34 | 21.10492 | -158.28491 | 3075 ft | 267 kts | 349° |
| 2026-05-04 09:34 | 21.12286 | -158.29000 | 3083 ft | 267 kts | 350° |
| 2026-05-04 09:35 | 21.14084 | -158.29509 | 3080 ft | 267 kts | 350° |
| 2026-05-04 09:35 | 21.15875 | -158.30020 | 3081 ft | 266 kts | 349° |
| 2026-05-04 09:35 | 21.17658 | -158.30443 | 3081 ft | 264 kts | 359° |
| 2026-05-04 09:35 | 21.19422 | -158.30267 | 3086 ft | 254 kts | 22° |
| 2026-05-04 09:37 | 21.28119 | -158.22261 | 3098 ft | 197 kts | 47° |
| 2026-05-04 09:37 | 21.29092 | -158.21308 | 3109 ft | 183 kts | 47° |
| 2026-05-04 09:38 | 21.29963 | -158.20388 | 3117 ft | 165 kts | 55° |
| 2026-05-04 09:38 | 21.30422 | -158.19360 | 3133 ft | 144 kts | 77° |
| 2026-05-04 09:38 | 21.30585 | -158.18349 | 3118 ft | 132 kts | 82° |
| 2026-05-04 09:38 | 21.30658 | -158.17404 | 3114 ft | 124 kts | 85° |
| 2026-05-04 09:39 | 21.30686 | -158.16490 | 3106 ft | 122 kts | 86° |
| 2026-05-04 09:39 | 21.30688 | -158.15572 | 3106 ft | 124 kts | 87° |
| 2026-05-04 09:39 | 21.30687 | -158.14646 | 3102 ft | 125 kts | 88° |
| 2026-05-04 09:39 | 21.30687 | -158.13712 | 3102 ft | 125 kts | 88° |
| 2026-05-04 09:40 | 21.30687 | -158.12780 | 3097 ft | 125 kts | 88° |
| 2026-05-04 09:40 | 21.30688 | -158.11852 | 3105 ft | 124 kts | 87° |
| 2026-05-04 09:40 | 21.30688 | -158.10935 | 3097 ft | 123 kts | 87° |
| 2026-05-04 09:40 | 21.30688 | -158.10015 | 3047 ft | 124 kts | 88° |
| 2026-05-04 09:41 | 21.30687 | -158.09092 | 2869 ft | 123 kts | 88° |
| 2026-05-04 09:42 | 21.30682 | -158.02716 | 1630 ft | 122 kts | 86° |
| 2026-05-04 09:43 | 21.30682 | -158.01799 | 1451 ft | 124 kts | 86° |
| 2026-05-04 09:43 | 21.30681 | -158.00873 | 1279 ft | 124 kts | 86° |
| 2026-05-04 09:43 | 21.30681 | -157.99957 | 1088 ft | 123 kts | 86° |
| 2026-05-04 09:43 | 21.30680 | -157.99036 | 913 ft | 124 kts | 84° |
| 2026-05-04 09:44 | 21.30684 | -157.98092 | 798 ft | 130 kts | 86° |
| 2026-05-04 09:44 | 21.30704 | -157.97108 | 665 ft | 132 kts | 88° |
| 2026-05-04 09:44 | 21.30709 | -157.96119 | 408 ft | 131 kts | 90° |
| 2026-05-04 09:46 | 21.30794 | -157.92000 | 31 ft | 18 kts | 60° |
| 2026-05-04 09:46 | 21.30863 | -157.91878 | 31 ft | 20 kts | 59° |
| 2026-05-04 09:46 | 21.30933 | -157.91753 | 30 ft | 20 kts | 62° |
| 2026-05-04 09:47 | 21.30972 | -157.91613 | 30 ft | 20 kts | 89° |
| 2026-05-04 09:47 | 21.30971 | -157.91525 | 30 ft | 10 kts | 90° |
| 2026-05-04 09:49 | 21.30681 | -157.91218 | 26 ft | 19 kts | 272° |
| 2026-05-04 09:49 | 21.30681 | -157.91367 | 27 ft | 21 kts | 268° |
| 2026-05-04 09:49 | 21.30677 | -157.91533 | 27 ft | 24 kts | 269° |
| 2026-05-04 09:51 | 21.30683 | -157.92814 | 30 ft | 35 kts | 269° |
| 2026-05-04 09:51 | 21.30681 | -157.93073 | 30 ft | 29 kts | 270° |
| 2026-05-04 09:51 | 21.30681 | -157.93217 | 25 ft | 20 kts | 270° |
| 2026-05-04 09:51 | 21.30691 | -157.93398 | 29 ft | 25 kts | 279° |
| 2026-05-04 09:52 | 21.30754 | -157.93573 | 30 ft | 25 kts | 299° |
| 2026-05-04 09:52 | 21.30833 | -157.93725 | 31 ft | 22 kts | 299° |
| 2026-05-04 09:52 | 21.30916 | -157.93874 | 31 ft | 25 kts | 302° |
| 2026-05-04 09:52 | 21.30975 | -157.94034 | 31 ft | 21 kts | 265° |
| 2026-05-04 09:53 | 21.30971 | -157.94202 | 31 ft | 24 kts | 269° |
| 2026-05-04 09:53 | 21.30973 | -157.94390 | 31 ft | 27 kts | 271° |
| 2026-05-04 09:53 | 21.30997 | -157.94572 | 31 ft | 14 kts | 324° |
| 2026-05-04 09:53 | 21.31086 | -157.94586 | 31 ft | 14 kts | 353° |
| 2026-05-04 09:54 | 21.31193 | -157.94600 | 31 ft | 17 kts | 353° |
| 2026-05-04 09:54 | 21.31279 | -157.94611 | 31 ft | 9 kts | 353° |
| 2026-05-04 09:54 | 21.31354 | -157.94622 | 31 ft | 12 kts | 353° |
| 2026-05-04 09:54 | 21.31450 | -157.94635 | 31 ft | 15 kts | 353° |
| 2026-05-04 09:55 | 21.31564 | -157.94648 | 31 ft | 18 kts | 354° |
| 2026-05-04 09:55 | 21.31695 | -157.94661 | 31 ft | 19 kts | 2° |
| 2026-05-04 09:55 | 21.31820 | -157.94610 | 31 ft | 20 kts | 28° |
| 2026-05-04 09:55 | 21.31947 | -157.94536 | 31 ft | 22 kts | 28° |
| 2026-05-04 09:56 | 21.31988 | -157.94512 | 31 ft | 0 kts | 29° |
| 2026-05-04 10:00 | 21.32240 | -157.94359 | 30 ft | 18 kts | 30° |
| 2026-05-04 10:00 | 21.32363 | -157.94325 | 31 ft | 20 kts | 1° |
| 2026-05-04 10:02 | 21.32826 | -157.94175 | 31 ft | 0 kts | 4° |
| 2026-05-04 10:04 | 21.32855 | -157.94267 | 31 ft | 0 kts | 271° |